sensor_id;sensor_type;location;lat;lon;timestamp;temperature;humidity
790;DHT22;378;48.844;9.156;2024-02-28T00:00:16;8.60;99.90
790;DHT22;378;48.844;9.156;2024-02-28T00:02:43;8.60;99.90
790;DHT22;378;48.844;9.156;2024-02-28T00:05:09;8.60;99.90
790;DHT22;378;48.844;9.156;2024-02-28T00:07:36;8.60;99.90
790;DHT22;378;48.844;9.156;2024-02-28T00:10:04;8.60;99.90
790;DHT22;378;48.844;9.156;2024-02-28T00:12:31;8.60;99.90
790;DHT22;378;48.844;9.156;2024-02-28T00:14:57;8.60;99.90
790;DHT22;378;48.844;9.156;2024-02-28T00:17:26;8.70;99.90
790;DHT22;378;48.844;9.156;2024-02-28T00:19:52;8.60;99.90
790;DHT22;378;48.844;9.156;2024-02-28T00:22:19;8.60;99.90
790;DHT22;378;48.844;9.156;2024-02-28T00:24:46;8.50;99.90
790;DHT22;378;48.844;9.156;2024-02-28T00:27:13;8.40;99.90
790;DHT22;378;48.844;9.156;2024-02-28T00:29:40;8.40;99.90
790;DHT22;378;48.844;9.156;2024-02-28T00:32:07;8.30;99.90
790;DHT22;378;48.844;9.156;2024-02-28T00:34:35;8.30;99.90
790;DHT22;378;48.844;9.156;2024-02-28T00:37:02;8.30;99.90
790;DHT22;378;48.844;9.156;2024-02-28T00:39:29;8.20;99.90
790;DHT22;378;48.844;9.156;2024-02-28T00:41:56;8.20;99.90
790;DHT22;378;48.844;9.156;2024-02-28T00:44:22;8.30;99.90
790;DHT22;378;48.844;9.156;2024-02-28T00:46:49;8.30;99.90
790;DHT22;378;48.844;9.156;2024-02-28T00:49:16;8.30;99.90
790;DHT22;378;48.844;9.156;2024-02-28T00:51:46;8.30;99.90
790;DHT22;378;48.844;9.156;2024-02-28T00:54:13;8.30;99.90
790;DHT22;378;48.844;9.156;2024-02-28T00:56:39;8.30;99.90
790;DHT22;378;48.844;9.156;2024-02-28T00:59:06;8.30;99.90
790;DHT22;378;48.844;9.156;2024-02-28T01:01:36;8.40;99.90
790;DHT22;378;48.844;9.156;2024-02-28T01:04:03;8.40;99.90
790;DHT22;378;48.844;9.156;2024-02-28T01:06:30;8.50;99.90
790;DHT22;378;48.844;9.156;2024-02-28T01:08:58;8.50;99.90
790;DHT22;378;48.844;9.156;2024-02-28T01:11:25;8.40;99.90
790;DHT22;378;48.844;9.156;2024-02-28T01:13:52;8.40;99.90
790;DHT22;378;48.844;9.156;2024-02-28T01:16:19;8.40;99.90
790;DHT22;378;48.844;9.156;2024-02-28T01:18:45;8.20;99.90
790;DHT22;378;48.844;9.156;2024-02-28T01:21:12;8.30;99.90
790;DHT22;378;48.844;9.156;2024-02-28T01:23:39;8.20;99.90
790;DHT22;378;48.844;9.156;2024-02-28T01:26:07;8.30;99.90
790;DHT22;378;48.844;9.156;2024-02-28T01:28:34;8.30;99.90
790;DHT22;378;48.844;9.156;2024-02-28T01:31:01;8.40;99.90
790;DHT22;378;48.844;9.156;2024-02-28T01:33:28;8.40;99.90
790;DHT22;378;48.844;9.156;2024-02-28T01:35:54;8.40;99.90
790;DHT22;378;48.844;9.156;2024-02-28T01:38:21;8.30;99.90
790;DHT22;378;48.844;9.156;2024-02-28T01:40:48;8.20;99.90
790;DHT22;378;48.844;9.156;2024-02-28T01:43:17;8.10;99.90
790;DHT22;378;48.844;9.156;2024-02-28T01:45:44;8.20;99.90
790;DHT22;378;48.844;9.156;2024-02-28T01:48:11;8.10;99.90
790;DHT22;378;48.844;9.156;2024-02-28T01:50:38;8.20;99.90
790;DHT22;378;48.844;9.156;2024-02-28T01:53:06;8.10;99.90
790;DHT22;378;48.844;9.156;2024-02-28T01:55:35;8.00;99.90
790;DHT22;378;48.844;9.156;2024-02-28T01:58:02;8.00;99.90
790;DHT22;378;48.844;9.156;2024-02-28T02:00:33;7.90;99.90
790;DHT22;378;48.844;9.156;2024-02-28T02:03:00;7.90;99.90
790;DHT22;378;48.844;9.156;2024-02-28T02:05:28;7.80;99.90
790;DHT22;378;48.844;9.156;2024-02-28T02:07:56;7.90;99.90
790;DHT22;378;48.844;9.156;2024-02-28T02:10:23;7.80;99.90
790;DHT22;378;48.844;9.156;2024-02-28T02:12:50;7.80;99.90
790;DHT22;378;48.844;9.156;2024-02-28T02:15:17;7.80;99.90
790;DHT22;378;48.844;9.156;2024-02-28T02:17:45;7.70;99.90
790;DHT22;378;48.844;9.156;2024-02-28T02:20:14;7.70;99.90
790;DHT22;378;48.844;9.156;2024-02-28T02:22:43;7.70;99.90
790;DHT22;378;48.844;9.156;2024-02-28T02:25:09;7.60;99.90
790;DHT22;378;48.844;9.156;2024-02-28T02:27:36;7.70;99.90
790;DHT22;378;48.844;9.156;2024-02-28T02:30:04;7.70;99.90
790;DHT22;378;48.844;9.156;2024-02-28T02:32:31;7.60;99.90
790;DHT22;378;48.844;9.156;2024-02-28T02:34:58;7.60;99.90
790;DHT22;378;48.844;9.156;2024-02-28T02:37:25;7.60;99.90
790;DHT22;378;48.844;9.156;2024-02-28T02:39:53;7.60;99.90
790;DHT22;378;48.844;9.156;2024-02-28T02:42:21;7.60;99.90
790;DHT22;378;48.844;9.156;2024-02-28T02:44:47;7.50;99.90
790;DHT22;378;48.844;9.156;2024-02-28T02:47:14;7.50;99.90
790;DHT22;378;48.844;9.156;2024-02-28T02:49:41;7.50;99.90
790;DHT22;378;48.844;9.156;2024-02-28T02:52:08;7.50;99.90
790;DHT22;378;48.844;9.156;2024-02-28T02:54:36;7.50;99.90
790;DHT22;378;48.844;9.156;2024-02-28T02:57:04;7.50;99.90
790;DHT22;378;48.844;9.156;2024-02-28T02:59:31;7.60;99.90
790;DHT22;378;48.844;9.156;2024-02-28T03:01:58;7.50;99.90
790;DHT22;378;48.844;9.156;2024-02-28T03:04:25;7.50;99.90
790;DHT22;378;48.844;9.156;2024-02-28T03:06:51;7.40;99.90
790;DHT22;378;48.844;9.156;2024-02-28T03:09:18;7.50;99.90
790;DHT22;378;48.844;9.156;2024-02-28T03:11:45;7.50;99.90
790;DHT22;378;48.844;9.156;2024-02-28T03:14:13;7.50;99.90
790;DHT22;378;48.844;9.156;2024-02-28T03:16:41;7.50;99.90
790;DHT22;378;48.844;9.156;2024-02-28T03:19:08;7.50;99.90
790;DHT22;378;48.844;9.156;2024-02-28T03:21:35;7.50;99.90
790;DHT22;378;48.844;9.156;2024-02-28T03:24:02;7.50;99.90
790;DHT22;378;48.844;9.156;2024-02-28T03:26:29;7.50;99.90
790;DHT22;378;48.844;9.156;2024-02-28T03:28:56;7.40;99.90
790;DHT22;378;48.844;9.156;2024-02-28T03:31:24;7.40;99.90
790;DHT22;378;48.844;9.156;2024-02-28T03:33:51;7.40;99.90
790;DHT22;378;48.844;9.156;2024-02-28T03:36:17;7.40;99.90
790;DHT22;378;48.844;9.156;2024-02-28T03:38:44;7.40;99.90
790;DHT22;378;48.844;9.156;2024-02-28T03:41:11;7.40;99.90
790;DHT22;378;48.844;9.156;2024-02-28T03:43:38;7.40;99.90
790;DHT22;378;48.844;9.156;2024-02-28T03:46:05;7.40;99.90
790;DHT22;378;48.844;9.156;2024-02-28T03:48:33;7.30;99.90
790;DHT22;378;48.844;9.156;2024-02-28T03:51:00;7.30;99.90
790;DHT22;378;48.844;9.156;2024-02-28T03:53:27;7.20;99.90
790;DHT22;378;48.844;9.156;2024-02-28T03:55:53;7.30;99.90
790;DHT22;378;48.844;9.156;2024-02-28T03:58:20;7.30;99.90
790;DHT22;378;48.844;9.156;2024-02-28T04:00:47;7.30;99.90
790;DHT22;378;48.844;9.156;2024-02-28T04:03:14;7.30;99.90
790;DHT22;378;48.844;9.156;2024-02-28T04:05:42;7.30;99.90
790;DHT22;378;48.844;9.156;2024-02-28T04:08:09;7.30;99.90
790;DHT22;378;48.844;9.156;2024-02-28T04:10:36;7.30;99.90
790;DHT22;378;48.844;9.156;2024-02-28T04:13:03;7.20;99.90
790;DHT22;378;48.844;9.156;2024-02-28T04:15:30;7.30;99.90
790;DHT22;378;48.844;9.156;2024-02-28T04:17:57;7.30;99.90
790;DHT22;378;48.844;9.156;2024-02-28T04:20:24;7.30;99.90
790;DHT22;378;48.844;9.156;2024-02-28T04:22:52;7.30;99.90
790;DHT22;378;48.844;9.156;2024-02-28T04:25:19;7.30;99.90
790;DHT22;378;48.844;9.156;2024-02-28T04:27:46;7.20;99.90
790;DHT22;378;48.844;9.156;2024-02-28T04:30:13;7.20;99.90
790;DHT22;378;48.844;9.156;2024-02-28T04:32:40;7.20;99.90
790;DHT22;378;48.844;9.156;2024-02-28T04:35:07;7.20;99.90
790;DHT22;378;48.844;9.156;2024-02-28T04:37:34;7.20;99.90
790;DHT22;378;48.844;9.156;2024-02-28T04:40:03;7.20;99.90
790;DHT22;378;48.844;9.156;2024-02-28T04:42:32;7.20;99.90
790;DHT22;378;48.844;9.156;2024-02-28T04:44:59;7.10;99.90
790;DHT22;378;48.844;9.156;2024-02-28T04:47:26;7.00;99.90
790;DHT22;378;48.844;9.156;2024-02-28T04:49:52;7.00;99.90
790;DHT22;378;48.844;9.156;2024-02-28T04:52:19;7.00;99.90
790;DHT22;378;48.844;9.156;2024-02-28T04:54:46;6.90;99.90
790;DHT22;378;48.844;9.156;2024-02-28T04:57:14;6.90;99.90
790;DHT22;378;48.844;9.156;2024-02-28T04:59:42;6.90;99.90
790;DHT22;378;48.844;9.156;2024-02-28T05:02:09;6.80;99.90
790;DHT22;378;48.844;9.156;2024-02-28T05:04:36;6.90;99.90
790;DHT22;378;48.844;9.156;2024-02-28T05:07:03;6.90;99.90
790;DHT22;378;48.844;9.156;2024-02-28T05:09:32;6.80;99.90
790;DHT22;378;48.844;9.156;2024-02-28T05:11:59;6.70;99.90
790;DHT22;378;48.844;9.156;2024-02-28T05:14:27;6.80;99.90
790;DHT22;378;48.844;9.156;2024-02-28T05:16:54;6.80;99.90
790;DHT22;378;48.844;9.156;2024-02-28T05:19:21;6.90;99.90
790;DHT22;378;48.844;9.156;2024-02-28T05:21:48;6.90;99.90
790;DHT22;378;48.844;9.156;2024-02-28T05:24:15;6.90;99.90
790;DHT22;378;48.844;9.156;2024-02-28T05:26:42;6.90;99.90
790;DHT22;378;48.844;9.156;2024-02-28T05:29:09;6.80;99.90
790;DHT22;378;48.844;9.156;2024-02-28T05:31:37;6.80;99.90
790;DHT22;378;48.844;9.156;2024-02-28T05:34:04;6.70;99.90
790;DHT22;378;48.844;9.156;2024-02-28T05:36:31;6.60;99.90
790;DHT22;378;48.844;9.156;2024-02-28T05:38:59;6.70;99.90
790;DHT22;378;48.844;9.156;2024-02-28T05:41:26;6.80;99.90
790;DHT22;378;48.844;9.156;2024-02-28T05:43:54;6.80;99.90
790;DHT22;378;48.844;9.156;2024-02-28T05:46:21;6.70;99.90
790;DHT22;378;48.844;9.156;2024-02-28T05:48:50;6.70;99.90
790;DHT22;378;48.844;9.156;2024-02-28T05:51:17;6.70;99.90
790;DHT22;378;48.844;9.156;2024-02-28T05:53:44;6.70;99.90
790;DHT22;378;48.844;9.156;2024-02-28T05:56:11;6.70;99.90
790;DHT22;378;48.844;9.156;2024-02-28T05:58:40;6.70;99.90
790;DHT22;378;48.844;9.156;2024-02-28T06:01:08;6.60;99.90
790;DHT22;378;48.844;9.156;2024-02-28T06:03:35;6.70;99.90
790;DHT22;378;48.844;9.156;2024-02-28T06:06:04;6.50;99.90
790;DHT22;378;48.844;9.156;2024-02-28T06:08:32;6.50;99.90
790;DHT22;378;48.844;9.156;2024-02-28T06:10:59;6.50;99.90
790;DHT22;378;48.844;9.156;2024-02-28T06:13:27;6.50;99.90
790;DHT22;378;48.844;9.156;2024-02-28T06:15:53;6.60;99.90
790;DHT22;378;48.844;9.156;2024-02-28T06:18:20;6.60;99.90
790;DHT22;378;48.844;9.156;2024-02-28T06:20:48;6.60;99.90
790;DHT22;378;48.844;9.156;2024-02-28T06:23:17;6.60;99.90
790;DHT22;378;48.844;9.156;2024-02-28T06:25:45;6.60;99.90
790;DHT22;378;48.844;9.156;2024-02-28T06:28:12;6.60;99.90
790;DHT22;378;48.844;9.156;2024-02-28T06:30:39;6.60;99.90
790;DHT22;378;48.844;9.156;2024-02-28T06:33:06;6.50;99.90
790;DHT22;378;48.844;9.156;2024-02-28T06:35:34;6.50;99.90
790;DHT22;378;48.844;9.156;2024-02-28T06:38:01;6.40;99.90
790;DHT22;378;48.844;9.156;2024-02-28T06:40:29;6.40;99.90
790;DHT22;378;48.844;9.156;2024-02-28T06:42:56;6.40;99.90
790;DHT22;378;48.844;9.156;2024-02-28T06:45:23;6.50;99.90
790;DHT22;378;48.844;9.156;2024-02-28T06:47:50;6.60;99.90
790;DHT22;378;48.844;9.156;2024-02-28T06:50:17;6.60;99.90
790;DHT22;378;48.844;9.156;2024-02-28T06:52:43;6.60;99.90
790;DHT22;378;48.844;9.156;2024-02-28T06:55:10;6.60;99.90
790;DHT22;378;48.844;9.156;2024-02-28T06:57:41;6.70;99.90
790;DHT22;378;48.844;9.156;2024-02-28T07:00:09;6.70;99.90
790;DHT22;378;48.844;9.156;2024-02-28T07:02:36;6.70;99.90
790;DHT22;378;48.844;9.156;2024-02-28T07:05:04;6.80;99.90
790;DHT22;378;48.844;9.156;2024-02-28T07:07:32;6.80;99.90
790;DHT22;378;48.844;9.156;2024-02-28T07:09:59;6.80;99.90
790;DHT22;378;48.844;9.156;2024-02-28T07:12:26;6.80;99.90
790;DHT22;378;48.844;9.156;2024-02-28T07:14:54;6.80;99.90
790;DHT22;378;48.844;9.156;2024-02-28T07:17:21;6.80;99.90
790;DHT22;378;48.844;9.156;2024-02-28T07:19:48;6.90;99.90
790;DHT22;378;48.844;9.156;2024-02-28T07:22:17;6.80;99.90
790;DHT22;378;48.844;9.156;2024-02-28T07:24:44;6.80;99.90
790;DHT22;378;48.844;9.156;2024-02-28T07:27:11;6.80;99.90
790;DHT22;378;48.844;9.156;2024-02-28T07:29:37;6.80;99.90
790;DHT22;378;48.844;9.156;2024-02-28T07:32:06;6.70;99.90
790;DHT22;378;48.844;9.156;2024-02-28T07:34:33;6.70;99.90
790;DHT22;378;48.844;9.156;2024-02-28T07:37:00;6.70;99.90
790;DHT22;378;48.844;9.156;2024-02-28T07:39:27;6.70;99.90
790;DHT22;378;48.844;9.156;2024-02-28T07:41:54;6.70;99.90
790;DHT22;378;48.844;9.156;2024-02-28T07:44:21;6.80;99.90
790;DHT22;378;48.844;9.156;2024-02-28T07:46:47;6.80;99.90
790;DHT22;378;48.844;9.156;2024-02-28T07:49:17;6.70;99.90
790;DHT22;378;48.844;9.156;2024-02-28T07:51:44;6.80;99.90
790;DHT22;378;48.844;9.156;2024-02-28T07:54:11;6.70;99.90
790;DHT22;378;48.844;9.156;2024-02-28T07:56:37;6.70;99.90
790;DHT22;378;48.844;9.156;2024-02-28T07:59:05;6.70;99.90
790;DHT22;378;48.844;9.156;2024-02-28T08:01:31;6.80;99.90
790;DHT22;378;48.844;9.156;2024-02-28T08:03:58;6.80;99.90
790;DHT22;378;48.844;9.156;2024-02-28T08:06:27;6.90;99.90
790;DHT22;378;48.844;9.156;2024-02-28T08:08:54;6.90;99.90
790;DHT22;378;48.844;9.156;2024-02-28T08:11:20;6.90;99.90
790;DHT22;378;48.844;9.156;2024-02-28T08:13:48;6.90;99.90
790;DHT22;378;48.844;9.156;2024-02-28T08:16:15;6.90;99.90
790;DHT22;378;48.844;9.156;2024-02-28T08:18:42;6.90;99.90
790;DHT22;378;48.844;9.156;2024-02-28T08:21:09;6.90;99.90
790;DHT22;378;48.844;9.156;2024-02-28T08:23:37;6.90;99.90
790;DHT22;378;48.844;9.156;2024-02-28T08:26:04;6.80;99.90
790;DHT22;378;48.844;9.156;2024-02-28T08:28:30;6.90;99.90
790;DHT22;378;48.844;9.156;2024-02-28T08:30:58;6.90;99.90
790;DHT22;378;48.844;9.156;2024-02-28T08:33:25;7.00;99.90
790;DHT22;378;48.844;9.156;2024-02-28T08:35:52;6.90;99.90
790;DHT22;378;48.844;9.156;2024-02-28T08:38:19;7.00;99.90
790;DHT22;378;48.844;9.156;2024-02-28T08:40:47;7.10;99.90
790;DHT22;378;48.844;9.156;2024-02-28T08:43:14;7.00;99.90
790;DHT22;378;48.844;9.156;2024-02-28T08:45:41;7.10;99.90
790;DHT22;378;48.844;9.156;2024-02-28T08:48:08;7.20;99.90
790;DHT22;378;48.844;9.156;2024-02-28T08:50:34;7.20;99.90
790;DHT22;378;48.844;9.156;2024-02-28T08:53:02;7.20;99.90
790;DHT22;378;48.844;9.156;2024-02-28T08:55:28;7.20;99.90
790;DHT22;378;48.844;9.156;2024-02-28T08:57:57;7.10;99.90
790;DHT22;378;48.844;9.156;2024-02-28T09:00:24;7.10;99.90
790;DHT22;378;48.844;9.156;2024-02-28T09:02:51;7.20;99.90
790;DHT22;378;48.844;9.156;2024-02-28T09:05:19;7.30;99.90
790;DHT22;378;48.844;9.156;2024-02-28T09:07:46;7.30;99.90
790;DHT22;378;48.844;9.156;2024-02-28T09:10:16;7.30;99.90
790;DHT22;378;48.844;9.156;2024-02-28T09:12:46;7.20;99.90
790;DHT22;378;48.844;9.156;2024-02-28T09:15:15;7.40;99.90
790;DHT22;378;48.844;9.156;2024-02-28T09:17:43;7.40;99.90
790;DHT22;378;48.844;9.156;2024-02-28T09:20:11;7.50;99.90
790;DHT22;378;48.844;9.156;2024-02-28T09:22:38;7.40;99.90
790;DHT22;378;48.844;9.156;2024-02-28T09:25:06;7.50;99.90
790;DHT22;378;48.844;9.156;2024-02-28T09:27:34;7.50;99.90
790;DHT22;378;48.844;9.156;2024-02-28T09:30:01;7.50;99.90
790;DHT22;378;48.844;9.156;2024-02-28T09:32:29;7.50;99.90
790;DHT22;378;48.844;9.156;2024-02-28T09:34:56;7.60;99.90
790;DHT22;378;48.844;9.156;2024-02-28T09:37:23;7.70;99.90
790;DHT22;378;48.844;9.156;2024-02-28T09:39:50;7.80;99.90
790;DHT22;378;48.844;9.156;2024-02-28T09:45:49;7.80;99.90
790;DHT22;378;48.844;9.156;2024-02-28T09:48:25;7.80;99.90
790;DHT22;378;48.844;9.156;2024-02-28T09:50:54;7.90;99.90
790;DHT22;378;48.844;9.156;2024-02-28T09:53:21;7.90;99.90
790;DHT22;378;48.844;9.156;2024-02-28T09:55:48;7.90;99.90
790;DHT22;378;48.844;9.156;2024-02-28T09:58:18;8.00;99.90
790;DHT22;378;48.844;9.156;2024-02-28T10:00:45;7.90;99.90
790;DHT22;378;48.844;9.156;2024-02-28T10:03:20;7.90;99.90
790;DHT22;378;48.844;9.156;2024-02-28T10:05:50;7.90;99.90
790;DHT22;378;48.844;9.156;2024-02-28T10:08:17;8.00;99.90
790;DHT22;378;48.844;9.156;2024-02-28T10:10:47;8.10;99.90
790;DHT22;378;48.844;9.156;2024-02-28T10:13:28;8.20;99.90
790;DHT22;378;48.844;9.156;2024-02-28T10:15:55;8.20;99.90
790;DHT22;378;48.844;9.156;2024-02-28T10:18:22;8.20;99.90
790;DHT22;378;48.844;9.156;2024-02-28T10:20:52;8.10;99.90
790;DHT22;378;48.844;9.156;2024-02-28T10:23:18;8.10;99.90
790;DHT22;378;48.844;9.156;2024-02-28T10:25:46;8.20;99.90
790;DHT22;378;48.844;9.156;2024-02-28T10:28:14;8.00;99.90
790;DHT22;378;48.844;9.156;2024-02-28T10:30:41;8.00;99.90
790;DHT22;378;48.844;9.156;2024-02-28T10:33:12;8.00;99.90
790;DHT22;378;48.844;9.156;2024-02-28T10:35:40;8.00;99.90
790;DHT22;378;48.844;9.156;2024-02-28T10:38:10;7.80;99.90
790;DHT22;378;48.844;9.156;2024-02-28T10:40:37;7.80;99.90
790;DHT22;378;48.844;9.156;2024-02-28T10:43:04;7.90;99.90
790;DHT22;378;48.844;9.156;2024-02-28T10:45:33;8.00;99.90
790;DHT22;378;48.844;9.156;2024-02-28T10:48:02;7.90;99.90
790;DHT22;378;48.844;9.156;2024-02-28T10:50:30;7.90;99.90
790;DHT22;378;48.844;9.156;2024-02-28T10:53:02;7.90;99.90
790;DHT22;378;48.844;9.156;2024-02-28T10:55:33;7.80;99.90
790;DHT22;378;48.844;9.156;2024-02-28T10:58:06;8.00;99.90
790;DHT22;378;48.844;9.156;2024-02-28T11:00:35;7.90;99.90
790;DHT22;378;48.844;9.156;2024-02-28T11:03:05;7.80;99.90
790;DHT22;378;48.844;9.156;2024-02-28T11:05:36;7.80;99.90
790;DHT22;378;48.844;9.156;2024-02-28T11:08:07;7.80;99.90
790;DHT22;378;48.844;9.156;2024-02-28T11:10:56;8.00;99.90
790;DHT22;378;48.844;9.156;2024-02-28T11:13:51;8.10;99.90
790;DHT22;378;48.844;9.156;2024-02-28T11:16:31;8.10;99.90
790;DHT22;378;48.844;9.156;2024-02-28T11:19:07;8.00;99.90
790;DHT22;378;48.844;9.156;2024-02-28T11:21:35;8.00;99.90
790;DHT22;378;48.844;9.156;2024-02-28T11:24:02;8.10;99.90
790;DHT22;378;48.844;9.156;2024-02-28T11:26:30;8.10;99.90
790;DHT22;378;48.844;9.156;2024-02-28T11:28:57;8.20;99.90
790;DHT22;378;48.844;9.156;2024-02-28T11:31:24;8.10;99.90
790;DHT22;378;48.844;9.156;2024-02-28T11:33:51;8.10;99.90
790;DHT22;378;48.844;9.156;2024-02-28T11:36:18;8.00;99.90
790;DHT22;378;48.844;9.156;2024-02-28T11:38:45;8.00;99.90
790;DHT22;378;48.844;9.156;2024-02-28T11:41:11;7.90;99.90
790;DHT22;378;48.844;9.156;2024-02-28T11:43:40;8.00;99.90
790;DHT22;378;48.844;9.156;2024-02-28T11:46:08;8.00;99.90
790;DHT22;378;48.844;9.156;2024-02-28T11:48:35;7.90;99.90
790;DHT22;378;48.844;9.156;2024-02-28T11:51:02;8.00;99.90
790;DHT22;378;48.844;9.156;2024-02-28T11:53:29;7.90;99.90
790;DHT22;378;48.844;9.156;2024-02-28T11:55:56;8.00;99.90
790;DHT22;378;48.844;9.156;2024-02-28T11:58:23;7.90;99.90
790;DHT22;378;48.844;9.156;2024-02-28T12:00:51;7.90;99.90
790;DHT22;378;48.844;9.156;2024-02-28T12:03:21;7.90;99.90
790;DHT22;378;48.844;9.156;2024-02-28T12:05:48;7.90;99.90
790;DHT22;378;48.844;9.156;2024-02-28T12:08:17;7.80;99.90
790;DHT22;378;48.844;9.156;2024-02-28T12:10:44;7.80;99.90
790;DHT22;378;48.844;9.156;2024-02-28T12:13:11;7.90;99.90
790;DHT22;378;48.844;9.156;2024-02-28T12:15:39;7.90;99.90
790;DHT22;378;48.844;9.156;2024-02-28T12:18:09;8.00;99.90
790;DHT22;378;48.844;9.156;2024-02-28T12:20:36;7.90;99.90
790;DHT22;378;48.844;9.156;2024-02-28T12:23:04;7.90;99.90
790;DHT22;378;48.844;9.156;2024-02-28T12:25:31;8.00;99.90
790;DHT22;378;48.844;9.156;2024-02-28T12:27:59;7.90;99.90
790;DHT22;378;48.844;9.156;2024-02-28T12:30:26;7.90;99.90
790;DHT22;378;48.844;9.156;2024-02-28T12:32:53;8.00;99.90
790;DHT22;378;48.844;9.156;2024-02-28T12:35:22;7.90;99.90
790;DHT22;378;48.844;9.156;2024-02-28T12:37:48;7.90;99.90
790;DHT22;378;48.844;9.156;2024-02-28T12:40:16;7.90;99.90
790;DHT22;378;48.844;9.156;2024-02-28T12:42:43;7.90;99.90
790;DHT22;378;48.844;9.156;2024-02-28T12:45:10;7.90;99.90
790;DHT22;378;48.844;9.156;2024-02-28T12:47:38;8.00;99.90
790;DHT22;378;48.844;9.156;2024-02-28T12:50:06;7.90;99.90
790;DHT22;378;48.844;9.156;2024-02-28T12:52:42;7.80;99.90
790;DHT22;378;48.844;9.156;2024-02-28T12:55:09;7.80;99.90
790;DHT22;378;48.844;9.156;2024-02-28T12:57:37;7.80;99.90
790;DHT22;378;48.844;9.156;2024-02-28T13:00:05;7.80;99.90
790;DHT22;378;48.844;9.156;2024-02-28T13:02:33;7.80;99.90
790;DHT22;378;48.844;9.156;2024-02-28T13:05:00;7.80;99.90
790;DHT22;378;48.844;9.156;2024-02-28T13:07:27;7.90;99.90
790;DHT22;378;48.844;9.156;2024-02-28T13:09:56;8.00;99.90
790;DHT22;378;48.844;9.156;2024-02-28T13:12:23;7.90;99.90
790;DHT22;378;48.844;9.156;2024-02-28T13:14:50;7.90;99.90
790;DHT22;378;48.844;9.156;2024-02-28T13:17:17;7.80;99.90
790;DHT22;378;48.844;9.156;2024-02-28T13:19:45;7.80;99.90
790;DHT22;378;48.844;9.156;2024-02-28T13:22:11;7.80;99.90
790;DHT22;378;48.844;9.156;2024-02-28T13:24:38;7.70;99.90
790;DHT22;378;48.844;9.156;2024-02-28T13:27:07;7.90;99.90
790;DHT22;378;48.844;9.156;2024-02-28T13:29:34;7.90;99.90
790;DHT22;378;48.844;9.156;2024-02-28T13:32:04;7.90;99.90
790;DHT22;378;48.844;9.156;2024-02-28T13:34:32;7.80;99.90
790;DHT22;378;48.844;9.156;2024-02-28T13:36:59;7.90;99.90
790;DHT22;378;48.844;9.156;2024-02-28T13:39:27;7.90;99.90
790;DHT22;378;48.844;9.156;2024-02-28T13:41:55;7.90;99.90
790;DHT22;378;48.844;9.156;2024-02-28T13:44:24;8.00;99.90
790;DHT22;378;48.844;9.156;2024-02-28T13:46:52;7.90;99.90
790;DHT22;378;48.844;9.156;2024-02-28T13:49:19;7.80;99.90
790;DHT22;378;48.844;9.156;2024-02-28T13:51:46;7.70;99.90
790;DHT22;378;48.844;9.156;2024-02-28T13:54:14;7.70;99.90
790;DHT22;378;48.844;9.156;2024-02-28T13:56:41;7.60;99.90
790;DHT22;378;48.844;9.156;2024-02-28T13:59:08;7.70;99.90
790;DHT22;378;48.844;9.156;2024-02-28T14:01:37;7.80;99.90
790;DHT22;378;48.844;9.156;2024-02-28T14:04:04;7.80;99.90
790;DHT22;378;48.844;9.156;2024-02-28T14:06:34;7.80;99.90
790;DHT22;378;48.844;9.156;2024-02-28T14:09:01;7.90;99.90
790;DHT22;378;48.844;9.156;2024-02-28T14:11:28;7.90;99.90
790;DHT22;378;48.844;9.156;2024-02-28T14:13:55;7.90;99.90
790;DHT22;378;48.844;9.156;2024-02-28T14:16:22;7.80;99.90
790;DHT22;378;48.844;9.156;2024-02-28T14:18:51;7.80;99.90
790;DHT22;378;48.844;9.156;2024-02-28T14:21:18;8.00;99.90
790;DHT22;378;48.844;9.156;2024-02-28T14:23:46;8.10;99.90
790;DHT22;378;48.844;9.156;2024-02-28T14:26:18;8.00;99.90
790;DHT22;378;48.844;9.156;2024-02-28T14:28:45;8.00;99.90
790;DHT22;378;48.844;9.156;2024-02-28T14:31:12;8.10;99.90
790;DHT22;378;48.844;9.156;2024-02-28T14:33:39;8.10;99.90
790;DHT22;378;48.844;9.156;2024-02-28T14:36:07;8.10;99.90
790;DHT22;378;48.844;9.156;2024-02-28T14:38:34;8.00;99.90
790;DHT22;378;48.844;9.156;2024-02-28T14:41:01;8.00;99.90
790;DHT22;378;48.844;9.156;2024-02-28T14:43:28;7.90;99.90
790;DHT22;378;48.844;9.156;2024-02-28T14:45:56;7.90;99.90
790;DHT22;378;48.844;9.156;2024-02-28T14:48:22;7.90;99.90
790;DHT22;378;48.844;9.156;2024-02-28T14:50:49;7.90;99.90
790;DHT22;378;48.844;9.156;2024-02-28T14:53:18;7.90;99.90
790;DHT22;378;48.844;9.156;2024-02-28T14:55:46;8.00;99.90
790;DHT22;378;48.844;9.156;2024-02-28T14:58:14;8.00;99.90
790;DHT22;378;48.844;9.156;2024-02-28T15:00:41;8.00;99.90
790;DHT22;378;48.844;9.156;2024-02-28T15:03:08;8.00;99.90
790;DHT22;378;48.844;9.156;2024-02-28T15:05:35;8.00;99.90
790;DHT22;378;48.844;9.156;2024-02-28T15:08:02;8.00;99.90
790;DHT22;378;48.844;9.156;2024-02-28T15:10:32;8.00;99.90
790;DHT22;378;48.844;9.156;2024-02-28T15:12:59;8.00;99.90
790;DHT22;378;48.844;9.156;2024-02-28T15:15:26;7.90;99.90
790;DHT22;378;48.844;9.156;2024-02-28T15:17:53;7.90;99.90
790;DHT22;378;48.844;9.156;2024-02-28T15:20:20;7.90;99.90
790;DHT22;378;48.844;9.156;2024-02-28T15:22:48;7.90;99.90
790;DHT22;378;48.844;9.156;2024-02-28T15:25:15;7.90;99.90
790;DHT22;378;48.844;9.156;2024-02-28T15:27:43;7.80;99.90
790;DHT22;378;48.844;9.156;2024-02-28T15:30:11;7.90;99.90
790;DHT22;378;48.844;9.156;2024-02-28T15:32:38;7.90;99.90
790;DHT22;378;48.844;9.156;2024-02-28T15:35:05;7.80;99.90
790;DHT22;378;48.844;9.156;2024-02-28T15:37:33;7.80;99.90
790;DHT22;378;48.844;9.156;2024-02-28T15:40:00;7.80;99.90
790;DHT22;378;48.844;9.156;2024-02-28T15:42:30;7.70;99.90
790;DHT22;378;48.844;9.156;2024-02-28T15:44:58;7.60;99.90
790;DHT22;378;48.844;9.156;2024-02-28T15:47:25;7.60;99.90
790;DHT22;378;48.844;9.156;2024-02-28T15:49:52;7.60;99.90
790;DHT22;378;48.844;9.156;2024-02-28T15:52:20;7.60;99.90
790;DHT22;378;48.844;9.156;2024-02-28T15:54:46;7.70;99.90
790;DHT22;378;48.844;9.156;2024-02-28T15:57:13;7.70;99.90
790;DHT22;378;48.844;9.156;2024-02-28T15:59:41;7.70;99.90
790;DHT22;378;48.844;9.156;2024-02-28T16:02:10;7.70;99.90
790;DHT22;378;48.844;9.156;2024-02-28T16:04:37;7.60;99.90
790;DHT22;378;48.844;9.156;2024-02-28T16:07:04;7.50;99.90
790;DHT22;378;48.844;9.156;2024-02-28T16:09:31;7.50;99.90
790;DHT22;378;48.844;9.156;2024-02-28T16:11:57;7.50;99.90
790;DHT22;378;48.844;9.156;2024-02-28T16:14:27;7.60;99.90
790;DHT22;378;48.844;9.156;2024-02-28T16:16:54;7.60;99.90
790;DHT22;378;48.844;9.156;2024-02-28T16:19:22;7.60;99.90
790;DHT22;378;48.844;9.156;2024-02-28T16:21:49;7.70;99.90
790;DHT22;378;48.844;9.156;2024-02-28T16:24:17;7.70;99.90
790;DHT22;378;48.844;9.156;2024-02-28T16:26:44;7.60;99.90
790;DHT22;378;48.844;9.156;2024-02-28T16:29:11;7.60;99.90
790;DHT22;378;48.844;9.156;2024-02-28T16:31:38;7.60;99.90
790;DHT22;378;48.844;9.156;2024-02-28T16:34:05;7.70;99.90
790;DHT22;378;48.844;9.156;2024-02-28T16:36:33;7.60;99.90
790;DHT22;378;48.844;9.156;2024-02-28T16:39:00;7.60;99.90
790;DHT22;378;48.844;9.156;2024-02-28T16:41:27;7.60;99.90
790;DHT22;378;48.844;9.156;2024-02-28T16:43:53;7.60;99.90
790;DHT22;378;48.844;9.156;2024-02-28T16:46:23;7.60;99.90
790;DHT22;378;48.844;9.156;2024-02-28T16:48:50;7.70;99.90
790;DHT22;378;48.844;9.156;2024-02-28T16:51:16;7.60;99.90
790;DHT22;378;48.844;9.156;2024-02-28T16:53:46;7.60;99.90
790;DHT22;378;48.844;9.156;2024-02-28T16:56:13;7.60;99.90